Flight Track Log - Related Links

Times and Time Zones

All times are in EDT time to prevent confusion due to time zone crossing. See the VNR160 flight status page for this flight to view local times or setup timezone preferences in your user account.

Time Position Orientation Groundspeed Altitude Reporting Facility
EDT Latitude Longitude Course Direction KTS MPH feet Rate Location/Type
Fri 08:03:50 PM 32.0233 -96.9756 102° East 182 209 5,700  Level Houston Center
Fri 08:04:55 PM 32.0014 -96.8939 108° East 245 282 7,000 1,344 Climbing Fort Worth Center
Fri 08:05:55 PM 31.9822 -96.8183 107° East 255 293 8,500 1,650 Climbing Fort Worth Center
Fri 08:06:55 PM 31.9589 -96.7375 109° East 263 303 10,300 1,850 Climbing Fort Worth Center
Fri 08:07:00 PM 31.9370 -96.6697 113° Southeast  Level Estimated
Fri 08:07:55 PM 31.9397 -96.6594 106° East 248 285 12,200  Level Fort Worth Center
Fri 08:08:55 PM 31.9203 -96.5739 105° East 254 292 14,000 1,800 Climbing Fort Worth Center
Fri 08:09:55 PM 31.9008 -96.4811 104° East 266 306 15,800 1,700 Climbing Fort Worth Center
Fri 08:10:55 PM 31.8794 -96.3956 106° East 278 320 17,400 1,400 Climbing Fort Worth Center
Fri 08:11:55 PM 31.8578 -96.3006 105° East 291 335 18,600 1,100 Climbing Fort Worth Center
Fri 08:12:55 PM 31.8297 -96.1981 108° East 311 358 19,600 950 Climbing Fort Worth Center
Fri 08:13:55 PM 31.8078 -96.1031 105° East 325 374 20,500 950 Climbing Fort Worth Center
Fri 08:14:55 PM 31.7753 -95.9936 109° East 344 396 21,500 1,100 Climbing Fort Worth Center
Fri 08:15:55 PM 31.7489 -95.8767 105° East 344 396 22,700 1,150 Climbing Fort Worth Center
Fri 08:16:55 PM 31.7183 -95.7697 109° East 344 396 23,800 1,150 Climbing Fort Worth Center
Fri 08:17:55 PM 31.6897 -95.6628 107° East 344 396 25,000 1,150 Climbing Fort Worth Center
Fri 08:18:55 PM 31.6486 -95.5636 116° Southeast 338 389 26,100 1,150 Climbing Fort Worth Center
Fri 08:19:55 PM 31.5931 -95.4694 125° Southeast 343 395 27,300 1,125 Climbing Fort Worth Center
Fri 08:22:23 PM 31.4639 -95.2414 124° Southeast 347 399 30,000 286 Climbing Houston Center
Fri 08:23:25 PM 31.4100 -95.1478 124° Southeast 347 399 28,300 484 Descending Houston Center
Fri 08:24:27 PM 31.3542 -95.0508 124° Southeast 354 407 31,000 1,306 Climbing Houston Center
Fri 08:25:29 PM 31.2947 -94.9478 124° Southeast 376 433 31,000  Level Houston Center
Fri 08:26:30 PM 31.2342 -94.8447 124° Southeast 384 442 31,000  Level Houston Center
Fri 08:27:32 PM 31.1669 -94.7242 123° Southeast 394 453 31,000  Level Houston Center
Fri 08:28:34 PM 31.1217 -94.5981 113° Southeast 406 467 31,000 -145 Level Houston Center
Fri 08:29:36 PM 31.0814 -94.4792 112° Southeast 400 460 30,700 -1,113 Descending Houston Center
Fri 08:30:38 PM 31.0372 -94.3511 112° Southeast 419 482 28,700 -2,371 Descending Houston Center
Fri 08:31:40 PM 30.9842 -94.1969 112° Southeast 427 491 25,800 -2,565 Descending Houston Center
Fri 08:32:42 PM 30.9428 -94.0789 112° Southeast 407 468 23,400 -2,371 Descending Houston Center
Fri 08:33:44 PM 30.9067 -93.9672 111° Southeast 378 435 20,900 -2,146 Descending Houston Center
Fri 08:34:45 PM 30.8728 -93.8706 112° Southeast 332 382 19,000 -927 Descending Houston Center
Fri 08:35:47 PM 30.8422 -93.7833 112° Southeast 301 346 19,000  Level Houston Center
Fri 08:36:49 PM 30.8117 -93.6950 112° Southeast 293 337 19,000  Level Houston Center
Fri 08:37:51 PM 30.7772 -93.5956 112° Southeast 319 367 19,000  Level Houston Center
Fri 08:38:53 PM 30.7353 -93.4731 112° Southeast 335 386 19,000  Level Houston Center
Fri 08:39:55 PM 30.6983 -93.3692 112° Southeast 342 394 19,000 -48 Level Houston Center
Fri 08:40:57 PM 30.6622 -93.2658 112° Southeast 344 396 18,900 -629 Descending Houston Center
Fri 08:41:59 PM 30.6258 -93.1633 112° Southeast 342 394 17,700 -1,065 Descending Houston Center
Fri 08:43:01 PM 30.5897 -93.0639 113° Southeast 335 386 16,700 -1,073 Descending Houston Center
Fri 08:44:02 PM 30.5556 -92.9661 112° Southeast 329 379 15,500 -1,171 Descending Houston Center
Fri 08:45:04 PM 30.5217 -92.8681 112° Southeast 326 375 14,300 -1,161 Descending Houston Center
Fri 08:46:06 PM 30.4881 -92.7733 112° Southeast 319 367 13,100 -1,258 Descending Houston Center
Fri 08:47:08 PM 30.4483 -92.6631 113° Southeast 310 357 11,700 -1,065 Descending Houston Center
Fri 08:48:10 PM 30.4147 -92.5694 113° Southeast 314 361 10,900 -387 Descending Houston Center
Fri 08:49:12 PM 30.3831 -92.4797 112° Southeast 302 348 10,900 -439 Level Houston Center
Fri 08:50:13 PM 30.3506 -92.3903 113° Southeast 301 346 10,000 -1,258 Descending Houston Center
Fri 08:51:16 PM 30.3178 -92.3011 113° Southeast 295 339 8,300 -1,694 Descending Houston Center
Fri 08:52:17 PM 30.3081 -92.2186 98° East 280 322 6,500 -1,805 Descending Houston Center
Fri 08:53:19 PM 30.3239 -92.1403 77° East 255 293 4,600 -2,000 Descending Houston Center
Fri 08:54:20 PM 30.3392 -92.0503 79° East 240 276 2,400 -1,317 Descending Houston Center
Fri 08:55:22 PM 30.3303 -91.9875 99° East 232 267 1,900 -484 Descending Houston Center
Fri 08:57:00 PM 30.2000 -91.9833 180° South  Level FlightAware Approximate
Fri 09:04:00 PM 30.2050 -91.9877 180° South  Level Estimated
Fri 09:05:00 PM 30.2000 -91.9833 180° South  Level FlightAware Approximate
Fri 09:06:00 PM 30.2050 -91.9877 180° South  Level Estimated
Fri 09:07:00 PM 30.2000 -91.9833 180° South  Level FlightAware Approximate

Login

Don't have an account? Register now (free) for customized features, flight alerts, and more!